sensor_id;sensor_type;location;lat;lon;timestamp;pressure;altitude;pressure_sealevel;temperature;humidity
10668;BME280;5382;42.136;24.796;2022-11-15T00:00:15;100582.47;;;8.63;100.00
10668;BME280;5382;42.136;24.796;2022-11-15T00:02:42;100659.47;;;9.05;100.00
10668;BME280;5382;42.136;24.796;2022-11-15T00:05:09;100635.91;;;8.84;100.00
10668;BME280;5382;42.136;24.796;2022-11-15T00:07:36;100654.84;;;9.08;100.00
10668;BME280;5382;42.136;24.796;2022-11-15T00:10:03;100655.75;;;9.25;100.00
10668;BME280;5382;42.136;24.796;2022-11-15T00:12:30;100662.91;;;9.23;100.00
10668;BME280;5382;42.136;24.796;2022-11-15T00:14:56;100647.13;;;9.21;100.00
10668;BME280;5382;42.136;24.796;2022-11-15T00:17:25;100662.91;;;9.38;100.00
10668;BME280;5382;42.136;24.796;2022-11-15T00:19:51;100651.16;;;9.28;100.00
10668;BME280;5382;42.136;24.796;2022-11-15T00:22:18;100659.13;;;9.11;100.00
10668;BME280;5382;42.136;24.796;2022-11-15T00:24:45;100657.47;;;8.92;100.00
10668;BME280;5382;42.136;24.796;2022-11-15T00:27:12;100653.34;;;8.87;100.00
10668;BME280;5382;42.136;24.796;2022-11-15T00:29:39;100650.75;;;8.69;100.00
10668;BME280;5382;42.136;24.796;2022-11-15T00:32:08;100660.63;;;8.48;100.00
10668;BME280;5382;42.136;24.796;2022-11-15T00:34:36;100662.22;;;8.34;100.00
10668;BME280;5382;42.136;24.796;2022-11-15T00:37:03;100659.59;;;8.16;100.00
10668;BME280;5382;42.136;24.796;2022-11-15T00:39:30;100653.16;;;8.22;100.00
10668;BME280;5382;42.136;24.796;2022-11-15T00:41:57;100650.03;;;8.14;100.00
10668;BME280;5382;42.136;24.796;2022-11-15T00:44:24;100651.59;;;8.18;100.00
10668;BME280;5382;42.136;24.796;2022-11-15T00:46:50;100652.22;;;8.23;100.00
10668;BME280;5382;42.136;24.796;2022-11-15T00:49:17;100646.25;;;8.19;100.00
10668;BME280;5382;42.136;24.796;2022-11-15T00:51:45;100652.06;;;8.08;100.00
10668;BME280;5382;42.136;24.796;2022-11-15T00:54:12;100633.13;;;8.18;100.00
10668;BME280;5382;42.136;24.796;2022-11-15T00:56:39;100639.97;;;8.22;100.00
10668;BME280;5382;42.136;24.796;2022-11-15T00:59:06;100636.94;;;8.29;100.00
10668;BME280;5382;42.136;24.796;2022-11-15T01:01:32;100637.00;;;8.28;100.00
10668;BME280;5382;42.136;24.796;2022-11-15T01:03:59;100637.38;;;8.39;100.00
10668;BME280;5382;42.136;24.796;2022-11-15T01:06:26;100615.47;;;8.37;100.00
10668;BME280;5382;42.136;24.796;2022-11-15T01:08:54;100636.25;;;8.43;100.00
10668;BME280;5382;42.136;24.796;2022-11-15T01:11:21;100640.06;;;8.55;100.00
10668;BME280;5382;42.136;24.796;2022-11-15T01:13:48;100639.56;;;8.64;100.00
10668;BME280;5382;42.136;24.796;2022-11-15T01:16:16;100621.59;;;8.38;100.00
10668;BME280;5382;42.136;24.796;2022-11-15T01:18:44;100643.25;;;8.44;100.00
10668;BME280;5382;42.136;24.796;2022-11-15T01:21:14;100609.41;;;8.35;100.00
10668;BME280;5382;42.136;24.796;2022-11-15T01:23:42;100627.69;;;8.38;100.00
10668;BME280;5382;42.136;24.796;2022-11-15T01:26:12;100622.31;;;8.41;100.00
10668;BME280;5382;42.136;24.796;2022-11-15T01:28:40;100619.50;;;8.27;100.00
10668;BME280;5382;42.136;24.796;2022-11-15T01:31:11;100617.78;;;8.26;100.00
10668;BME280;5382;42.136;24.796;2022-11-15T01:33:38;100621.81;;;8.33;100.00
10668;BME280;5382;42.136;24.796;2022-11-15T01:36:07;100626.06;;;8.36;100.00
10668;BME280;5382;42.136;24.796;2022-11-15T01:38:34;100622.84;;;8.48;100.00
10668;BME280;5382;42.136;24.796;2022-11-15T01:41:01;100618.25;;;8.51;100.00
10668;BME280;5382;42.136;24.796;2022-11-15T01:43:31;100616.53;;;8.68;100.00
10668;BME280;5382;42.136;24.796;2022-11-15T01:46:02;100619.19;;;8.68;100.00
10668;BME280;5382;42.136;24.796;2022-11-15T01:48:32;100616.38;;;8.71;100.00
10668;BME280;5382;42.136;24.796;2022-11-15T01:51:01;100609.25;;;8.73;100.00
10668;BME280;5382;42.136;24.796;2022-11-15T01:53:29;100613.00;;;8.85;100.00
10668;BME280;5382;42.136;24.796;2022-11-15T01:55:57;100605.09;;;8.85;100.00
10668;BME280;5382;42.136;24.796;2022-11-15T01:58:24;100611.38;;;8.82;100.00
10668;BME280;5382;42.136;24.796;2022-11-15T02:00:52;100615.72;;;8.83;100.00
10668;BME280;5382;42.136;24.796;2022-11-15T02:03:20;100605.00;;;8.86;100.00
10668;BME280;5382;42.136;24.796;2022-11-15T02:05:50;100616.94;;;8.93;100.00
10668;BME280;5382;42.136;24.796;2022-11-15T02:08:17;100613.81;;;9.03;100.00
10668;BME280;5382;42.136;24.796;2022-11-15T02:10:46;100643.97;;;8.99;100.00
10668;BME280;5382;42.136;24.796;2022-11-15T02:13:13;100625.88;;;8.91;100.00
10668;BME280;5382;42.136;24.796;2022-11-15T02:15:46;100623.97;;;8.77;100.00
10668;BME280;5382;42.136;24.796;2022-11-15T02:18:23;100618.69;;;8.77;100.00
10668;BME280;5382;42.136;24.796;2022-11-15T02:21:00;100615.72;;;8.83;100.00
10668;BME280;5382;42.136;24.796;2022-11-15T02:24:06;100607.13;;;8.95;100.00
10668;BME280;5382;42.136;24.796;2022-11-15T02:29:54;100620.50;;;8.92;100.00
10668;BME280;5382;42.136;24.796;2022-11-15T02:32:33;100613.97;;;9.00;100.00
10668;BME280;5382;42.136;24.796;2022-11-15T02:35:10;100618.56;;;8.96;100.00
10668;BME280;5382;42.136;24.796;2022-11-15T02:37:43;100611.13;;;8.87;100.00
10668;BME280;5382;42.136;24.796;2022-11-15T02:40:14;100609.28;;;8.89;100.00
10668;BME280;5382;42.136;24.796;2022-11-15T02:42:48;100601.97;;;8.94;100.00
10668;BME280;5382;42.136;24.796;2022-11-15T02:45:38;100574.78;;;8.76;100.00
10668;BME280;5382;42.136;24.796;2022-11-15T02:48:09;100607.50;;;9.05;100.00
10668;BME280;5382;42.136;24.796;2022-11-15T02:50:36;100605.72;;;9.06;100.00
10668;BME280;5382;42.136;24.796;2022-11-15T02:53:04;100599.38;;;8.92;100.00
10668;BME280;5382;42.136;24.796;2022-11-15T02:55:33;100608.31;;;8.90;100.00
10668;BME280;5382;42.136;24.796;2022-11-15T02:58:18;100606.41;;;8.93;100.00
10668;BME280;5382;42.136;24.796;2022-11-15T03:00:52;100602.81;;;8.94;100.00
10668;BME280;5382;42.136;24.796;2022-11-15T03:03:46;100601.13;;;9.09;100.00
10668;BME280;5382;42.136;24.796;2022-11-15T03:06:24;100570.59;;;8.88;100.00
10668;BME280;5382;42.136;24.796;2022-11-15T03:09:01;100600.16;;;8.94;100.00
10668;BME280;5382;42.136;24.796;2022-11-15T03:11:29;100609.03;;;8.93;100.00
10668;BME280;5382;42.136;24.796;2022-11-15T03:14:03;100597.66;;;9.09;100.00
10668;BME280;5382;42.136;24.796;2022-11-15T03:16:35;100598.75;;;9.05;100.00
10668;BME280;5382;42.136;24.796;2022-11-15T03:19:07;100597.97;;;9.03;100.00
10668;BME280;5382;42.136;24.796;2022-11-15T03:21:37;100580.84;;;8.94;100.00
10668;BME280;5382;42.136;24.796;2022-11-15T03:24:07;100582.94;;;8.87;100.00
10668;BME280;5382;42.136;24.796;2022-11-15T03:26:36;100598.56;;;9.08;100.00
10668;BME280;5382;42.136;24.796;2022-11-15T03:29:09;100596.47;;;9.14;100.00
10668;BME280;5382;42.136;24.796;2022-11-15T03:31:40;100575.63;;;8.92;100.00
10668;BME280;5382;42.136;24.796;2022-11-15T03:34:21;100584.75;;;9.03;100.00
10668;BME280;5382;42.136;24.796;2022-11-15T03:36:51;100593.13;;;9.11;100.00
10668;BME280;5382;42.136;24.796;2022-11-15T03:39:19;100578.03;;;8.97;100.00
10668;BME280;5382;42.136;24.796;2022-11-15T03:41:49;100585.13;;;9.12;100.00
10668;BME280;5382;42.136;24.796;2022-11-15T03:44:26;100565.50;;;9.01;100.00
10668;BME280;5382;42.136;24.796;2022-11-15T03:47:01;100589.03;;;9.05;100.00
10668;BME280;5382;42.136;24.796;2022-11-15T03:49:33;100578.81;;;9.15;100.00
10668;BME280;5382;42.136;24.796;2022-11-15T03:52:02;100572.69;;;9.14;100.00
10668;BME280;5382;42.136;24.796;2022-11-15T03:54:29;100565.13;;;9.24;100.00
10668;BME280;5382;42.136;24.796;2022-11-15T03:56:56;100561.44;;;9.11;100.00
10668;BME280;5382;42.136;24.796;2022-11-15T03:59:23;100561.34;;;9.12;100.00
10668;BME280;5382;42.136;24.796;2022-11-15T04:01:50;100566.63;;;9.12;100.00
10668;BME280;5382;42.136;24.796;2022-11-15T04:04:17;100556.91;;;8.97;100.00
10668;BME280;5382;42.136;24.796;2022-11-15T04:06:45;100558.00;;;8.93;100.00
10668;BME280;5382;42.136;24.796;2022-11-15T04:09:12;100553.75;;;8.90;100.00
10668;BME280;5382;42.136;24.796;2022-11-15T04:11:38;100557.69;;;8.83;100.00
10668;BME280;5382;42.136;24.796;2022-11-15T04:14:05;100551.09;;;8.90;100.00
10668;BME280;5382;42.136;24.796;2022-11-15T04:16:32;100541.69;;;8.86;100.00
10668;BME280;5382;42.136;24.796;2022-11-15T04:18:59;100552.59;;;8.96;100.00
10668;BME280;5382;42.136;24.796;2022-11-15T04:21:44;100542.28;;;8.91;100.00
10668;BME280;5382;42.136;24.796;2022-11-15T04:24:28;100552.41;;;8.99;100.00
10668;BME280;5382;42.136;24.796;2022-11-15T04:26:55;100544.13;;;8.89;100.00
10668;BME280;5382;42.136;24.796;2022-11-15T04:29:22;100550.38;;;8.88;100.00
10668;BME280;5382;42.136;24.796;2022-11-15T04:32:01;100524.47;;;8.79;100.00
10668;BME280;5382;42.136;24.796;2022-11-15T04:34:28;100542.44;;;8.88;100.00
10668;BME280;5382;42.136;24.796;2022-11-15T04:36:56;100544.47;;;8.83;100.00
10668;BME280;5382;42.136;24.796;2022-11-15T04:39:38;100537.41;;;8.84;100.00
10668;BME280;5382;42.136;24.796;2022-11-15T04:42:05;100539.03;;;8.86;100.00
10668;BME280;5382;42.136;24.796;2022-11-15T04:44:32;100548.22;;;8.95;100.00
10668;BME280;5382;42.136;24.796;2022-11-15T04:47:00;100543.66;;;8.99;100.00
10668;BME280;5382;42.136;24.796;2022-11-15T04:49:27;100549.66;;;9.01;100.00
10668;BME280;5382;42.136;24.796;2022-11-15T04:51:53;100554.28;;;8.97;100.00
10668;BME280;5382;42.136;24.796;2022-11-15T04:54:22;100537.50;;;8.98;100.00
10668;BME280;5382;42.136;24.796;2022-11-15T04:56:48;100539.88;;;8.87;100.00
10668;BME280;5382;42.136;24.796;2022-11-15T04:59:15;100547.88;;;8.85;100.00
10668;BME280;5382;42.136;24.796;2022-11-15T05:01:42;100538.69;;;8.92;100.00
10668;BME280;5382;42.136;24.796;2022-11-15T05:04:09;100542.44;;;8.88;100.00
10668;BME280;5382;42.136;24.796;2022-11-15T05:06:48;100544.22;;;8.88;100.00
10668;BME280;5382;42.136;24.796;2022-11-15T05:09:15;100546.00;;;8.87;100.00
10668;BME280;5382;42.136;24.796;2022-11-15T05:11:44;100540.72;;;8.87;100.00
10668;BME280;5382;42.136;24.796;2022-11-15T05:14:10;100568.84;;;8.88;100.00
10668;BME280;5382;42.136;24.796;2022-11-15T05:16:37;100546.41;;;8.80;100.00
10668;BME280;5382;42.136;24.796;2022-11-15T05:19:05;100548.38;;;8.76;100.00
10668;BME280;5382;42.136;24.796;2022-11-15T05:21:32;100542.00;;;8.80;100.00
10668;BME280;5382;42.136;24.796;2022-11-15T05:23:59;100514.25;;;8.57;100.00
10668;BME280;5382;42.136;24.796;2022-11-15T05:26:26;100535.25;;;8.74;100.00
10668;BME280;5382;42.136;24.796;2022-11-15T05:28:56;100543.00;;;8.78;100.00
10668;BME280;5382;42.136;24.796;2022-11-15T05:31:24;100547.19;;;8.82;100.00
10668;BME280;5382;42.136;24.796;2022-11-15T05:33:51;100534.00;;;8.82;100.00
10668;BME280;5382;42.136;24.796;2022-11-15T05:36:24;100545.56;;;8.79;100.00
10668;BME280;5382;42.136;24.796;2022-11-15T05:38:53;100547.38;;;8.79;100.00
10668;BME280;5382;42.136;24.796;2022-11-15T05:41:23;100534.94;;;8.65;100.00
10668;BME280;5382;42.136;24.796;2022-11-15T05:43:52;100536.50;;;8.51;100.00
10668;BME280;5382;42.136;24.796;2022-11-15T05:46:21;100549.69;;;8.51;100.00
10668;BME280;5382;42.136;24.796;2022-11-15T05:48:49;100498.28;;;8.25;100.00
10668;BME280;5382;42.136;24.796;2022-11-15T05:51:18;100544.78;;;8.61;100.00
10668;BME280;5382;42.136;24.796;2022-11-15T05:53:47;100550.59;;;8.68;100.00
10668;BME280;5382;42.136;24.796;2022-11-15T05:56:15;100561.78;;;8.56;100.00
10668;BME280;5382;42.136;24.796;2022-11-15T05:58:42;100549.53;;;8.55;100.00
10668;BME280;5382;42.136;24.796;2022-11-15T06:01:09;100564.66;;;8.51;100.00
10668;BME280;5382;42.136;24.796;2022-11-15T06:03:37;100549.34;;;8.42;100.00
10668;BME280;5382;42.136;24.796;2022-11-15T06:06:05;100545.28;;;8.52;100.00
10668;BME280;5382;42.136;24.796;2022-11-15T06:08:31;100562.66;;;8.72;100.00
10668;BME280;5382;42.136;24.796;2022-11-15T06:11:03;100563.38;;;8.76;100.00
10668;BME280;5382;42.136;24.796;2022-11-15T06:13:30;100565.59;;;8.83;100.00
10668;BME280;5382;42.136;24.796;2022-11-15T06:15:57;100559.19;;;8.87;100.00
10668;BME280;5382;42.136;24.796;2022-11-15T06:18:24;100558.88;;;8.93;100.00
10668;BME280;5382;42.136;24.796;2022-11-15T06:20:52;100559.38;;;9.00;100.00
10668;BME280;5382;42.136;24.796;2022-11-15T06:23:19;100566.34;;;8.85;100.00
10668;BME280;5382;42.136;24.796;2022-11-15T06:25:46;100542.38;;;8.57;100.00
10668;BME280;5382;42.136;24.796;2022-11-15T06:28:13;100565.66;;;8.82;100.00
10668;BME280;5382;42.136;24.796;2022-11-15T06:30:40;100554.53;;;8.92;100.00
10668;BME280;5382;42.136;24.796;2022-11-15T06:33:07;100568.84;;;9.04;100.00
10668;BME280;5382;42.136;24.796;2022-11-15T06:35:35;100573.47;;;9.16;100.00
10668;BME280;5382;42.136;24.796;2022-11-15T06:38:06;100563.66;;;9.18;100.00
10668;BME280;5382;42.136;24.796;2022-11-15T06:40:36;100568.25;;;9.15;100.00
10668;BME280;5382;42.136;24.796;2022-11-15T06:43:03;100568.34;;;9.13;100.00
10668;BME280;5382;42.136;24.796;2022-11-15T06:45:31;100576.72;;;9.22;100.00
10668;BME280;5382;42.136;24.796;2022-11-15T06:47:58;100569.50;;;9.39;100.00
10668;BME280;5382;42.136;24.796;2022-11-15T06:50:25;100573.47;;;9.32;100.00
10668;BME280;5382;42.136;24.796;2022-11-15T06:52:51;100570.13;;;9.60;100.00
10668;BME280;5382;42.136;24.796;2022-11-15T06:55:21;100572.81;;;9.75;100.00
10668;BME280;5382;42.136;24.796;2022-11-15T06:57:48;100567.88;;;9.99;100.00
10668;BME280;5382;42.136;24.796;2022-11-15T07:00:17;100570.66;;;10.28;100.00
10668;BME280;5382;42.136;24.796;2022-11-15T07:02:43;100568.19;;;10.39;100.00
10668;BME280;5382;42.136;24.796;2022-11-15T07:05:10;100548.00;;;10.22;100.00
10668;BME280;5382;42.136;24.796;2022-11-15T07:07:37;100570.09;;;10.51;100.00
10668;BME280;5382;42.136;24.796;2022-11-15T07:10:05;100491.44;;;10.10;100.00
10668;BME280;5382;42.136;24.796;2022-11-15T07:12:34;100518.50;;;10.44;100.00
10668;BME280;5382;42.136;24.796;2022-11-15T07:15:00;100556.50;;;10.72;100.00
10668;BME280;5382;42.136;24.796;2022-11-15T07:17:28;100561.88;;;10.84;100.00
10668;BME280;5382;42.136;24.796;2022-11-15T07:19:55;100560.16;;;10.98;100.00
10668;BME280;5382;42.136;24.796;2022-11-15T07:22:21;100564.31;;;11.02;100.00
10668;BME280;5382;42.136;24.796;2022-11-15T07:24:48;100558.75;;;10.92;100.00
10668;BME280;5382;42.136;24.796;2022-11-15T07:27:15;100564.13;;;10.90;100.00
10668;BME280;5382;42.136;24.796;2022-11-15T07:29:43;100544.97;;;10.87;100.00
10668;BME280;5382;42.136;24.796;2022-11-15T07:32:10;100556.59;;;10.84;100.00
10668;BME280;5382;42.136;24.796;2022-11-15T07:34:37;100553.19;;;10.82;100.00
10668;BME280;5382;42.136;24.796;2022-11-15T07:37:03;100552.13;;;10.85;100.00
10668;BME280;5382;42.136;24.796;2022-11-15T07:39:30;100549.38;;;10.86;100.00
10668;BME280;5382;42.136;24.796;2022-11-15T07:42:14;100560.28;;;10.82;100.00
10668;BME280;5382;42.136;24.796;2022-11-15T07:58:05;100520.16;;;11.29;100.00
10668;BME280;5382;42.136;24.796;2022-11-15T08:00:47;100551.31;;;11.26;100.00
10668;BME280;5382;42.136;24.796;2022-11-15T08:03:26;100525.31;;;11.18;100.00
10668;BME280;5382;42.136;24.796;2022-11-15T08:09:41;100543.38;;;11.26;100.00
10668;BME280;5382;42.136;24.796;2022-11-15T08:12:24;100520.88;;;11.19;100.00
10668;BME280;5382;42.136;24.796;2022-11-15T08:15:00;100545.09;;;11.54;100.00
10668;BME280;5382;42.136;24.796;2022-11-15T08:17:40;100543.19;;;11.69;100.00
10668;BME280;5382;42.136;24.796;2022-11-15T08:20:10;100548.44;;;11.83;100.00
10668;BME280;5382;42.136;24.796;2022-11-15T08:23:02;100535.19;;;11.83;100.00
10668;BME280;5382;42.136;24.796;2022-11-15T08:25:58;100534.50;;;12.07;100.00
10668;BME280;5382;42.136;24.796;2022-11-15T08:28:39;100531.44;;;12.13;100.00
10668;BME280;5382;42.136;24.796;2022-11-15T08:31:42;100537.78;;;12.10;100.00
10668;BME280;5382;42.136;24.796;2022-11-15T08:34:28;100541.53;;;12.20;100.00
10668;BME280;5382;42.136;24.796;2022-11-15T08:37:13;100530.38;;;12.28;100.00
10668;BME280;5382;42.136;24.796;2022-11-15T08:40:10;100534.53;;;12.58;100.00
10668;BME280;5382;42.136;24.796;2022-11-15T08:42:43;100497.47;;;12.43;100.00
10668;BME280;5382;42.136;24.796;2022-11-15T08:45:29;100474.91;;;12.75;100.00
10668;BME280;5382;42.136;24.796;2022-11-15T08:48:26;100527.59;;;13.18;100.00
10668;BME280;5382;42.136;24.796;2022-11-15T08:51:02;100521.63;;;12.90;100.00
10668;BME280;5382;42.136;24.796;2022-11-15T08:53:49;100482.25;;;12.71;100.00
10668;BME280;5382;42.136;24.796;2022-11-15T08:56:25;100507.59;;;12.88;100.00
10668;BME280;5382;42.136;24.796;2022-11-15T08:59:06;100506.38;;;13.05;100.00
10668;BME280;5382;42.136;24.796;2022-11-15T09:01:54;100499.44;;;13.28;100.00
10668;BME280;5382;42.136;24.796;2022-11-15T09:04:28;100489.31;;;13.33;100.00
10668;BME280;5382;42.136;24.796;2022-11-15T09:07:09;100471.69;;;13.32;100.00
10668;BME280;5382;42.136;24.796;2022-11-15T09:10:09;100487.03;;;13.64;100.00
10668;BME280;5382;42.136;24.796;2022-11-15T09:12:49;100484.53;;;13.73;100.00
10668;BME280;5382;42.136;24.796;2022-11-15T09:15:33;100480.91;;;13.86;100.00
10668;BME280;5382;42.136;24.796;2022-11-15T09:18:16;100461.94;;;14.02;100.00
10668;BME280;5382;42.136;24.796;2022-11-15T09:24:12;100455.44;;;14.17;100.00
10668;BME280;5382;42.136;24.796;2022-11-15T09:26:39;100446.25;;;14.21;100.00
10668;BME280;5382;42.136;24.796;2022-11-15T10:52:48;100304.97;;;20.44;71.43
10668;BME280;5382;42.136;24.796;2022-11-15T10:55:24;100270.13;;;20.60;70.19
10668;BME280;5382;42.136;24.796;2022-11-15T10:57:54;100299.34;;;20.88;67.26
10668;BME280;5382;42.136;24.796;2022-11-15T11:00:29;100291.28;;;20.88;67.28
10668;BME280;5382;42.136;24.796;2022-11-15T11:02:58;100286.25;;;21.01;64.33
10668;BME280;5382;42.136;24.796;2022-11-15T11:05:28;100259.34;;;20.68;65.74
10668;BME280;5382;42.136;24.796;2022-11-15T11:07:59;100278.00;;;21.91;63.09
10668;BME280;5382;42.136;24.796;2022-11-15T11:10:27;100276.13;;;22.00;61.30
10668;BME280;5382;42.136;24.796;2022-11-15T11:12:55;100276.22;;;22.77;59.58
10668;BME280;5382;42.136;24.796;2022-11-15T11:15:24;100260.13;;;21.98;58.23
10668;BME280;5382;42.136;24.796;2022-11-15T11:18:02;100271.63;;;20.96;62.83
10668;BME280;5382;42.136;24.796;2022-11-15T11:20:38;100258.81;;;21.94;59.98
10668;BME280;5382;42.136;24.796;2022-11-15T11:23:36;100242.69;;;20.65;62.00
10668;BME280;5382;42.136;24.796;2022-11-15T11:26:15;100247.75;;;21.81;59.53
10668;BME280;5382;42.136;24.796;2022-11-15T11:28:51;100249.09;;;22.48;57.10
10668;BME280;5382;42.136;24.796;2022-11-15T11:31:27;100238.22;;;21.62;59.25
10668;BME280;5382;42.136;24.796;2022-11-15T11:34:04;100234.31;;;20.84;61.73
10668;BME280;5382;42.136;24.796;2022-11-15T11:36:45;100218.94;;;21.34;61.96
10668;BME280;5382;42.136;24.796;2022-11-15T11:39:24;100214.25;;;21.11;60.83
10668;BME280;5382;42.136;24.796;2022-11-15T11:42:03;100202.81;;;22.13;58.53
10668;BME280;5382;42.136;24.796;2022-11-15T11:44:43;100217.19;;;22.97;59.21
10668;BME280;5382;42.136;24.796;2022-11-15T11:47:21;100215.53;;;24.00;53.46
10668;BME280;5382;42.136;24.796;2022-11-15T11:49:51;100203.47;;;24.17;52.34
10668;BME280;5382;42.136;24.796;2022-11-15T11:52:23;100179.13;;;23.81;53.66
10668;BME280;5382;42.136;24.796;2022-11-15T11:55:02;100181.69;;;24.04;50.87
10668;BME280;5382;42.136;24.796;2022-11-15T11:57:39;100133.28;;;24.09;50.19
10668;BME280;5382;42.136;24.796;2022-11-15T12:00:17;100189.56;;;24.42;49.90
10668;BME280;5382;42.136;24.796;2022-11-15T12:02:49;100192.00;;;24.80;49.44
10668;BME280;5382;42.136;24.796;2022-11-15T12:05:22;100185.97;;;24.56;50.62
10668;BME280;5382;42.136;24.796;2022-11-15T12:07:53;100176.81;;;25.14;48.46
10668;BME280;5382;42.136;24.796;2022-11-15T12:10:28;100171.56;;;25.34;46.56
10668;BME280;5382;42.136;24.796;2022-11-15T12:13:07;100177.81;;;25.34;45.82
10668;BME280;5382;42.136;24.796;2022-11-15T12:15:40;100168.88;;;25.82;44.97
10668;BME280;5382;42.136;24.796;2022-11-15T12:18:12;100134.75;;;26.01;44.07
10668;BME280;5382;42.136;24.796;2022-11-15T12:20:51;100161.38;;;25.42;46.43
10668;BME280;5382;42.136;24.796;2022-11-15T12:23:23;100160.84;;;25.19;46.45
10668;BME280;5382;42.136;24.796;2022-11-15T12:25:58;100152.22;;;24.09;48.34
10668;BME280;5382;42.136;24.796;2022-11-15T12:28:35;100151.28;;;24.24;48.92
10668;BME280;5382;42.136;24.796;2022-11-15T12:31:09;100144.94;;;24.10;49.52
10668;BME280;5382;42.136;24.796;2022-11-15T12:33:41;100144.22;;;24.23;48.42
10668;BME280;5382;42.136;24.796;2022-11-15T12:36:11;100144.56;;;24.84;47.54
10668;BME280;5382;42.136;24.796;2022-11-15T12:38:56;100130.81;;;24.36;47.94
10668;BME280;5382;42.136;24.796;2022-11-15T12:41:26;100139.44;;;24.03;48.73
10668;BME280;5382;42.136;24.796;2022-11-15T12:43:54;100147.50;;;23.97;49.05
10668;BME280;5382;42.136;24.796;2022-11-15T12:46:26;100129.22;;;24.63;47.80
10668;BME280;5382;42.136;24.796;2022-11-15T12:49:11;100129.59;;;25.71;44.58
10668;BME280;5382;42.136;24.796;2022-11-15T12:52:06;100127.03;;;25.50;44.51
10668;BME280;5382;42.136;24.796;2022-11-15T12:54:54;100124.78;;;24.84;45.87
10668;BME280;5382;42.136;24.796;2022-11-15T12:57:31;100072.22;;;24.43;45.95
10668;BME280;5382;42.136;24.796;2022-11-15T13:00:00;100110.03;;;24.86;45.99
10668;BME280;5382;42.136;24.796;2022-11-15T13:02:30;100106.19;;;24.74;46.61
10668;BME280;5382;42.136;24.796;2022-11-15T13:07:58;100105.50;;;23.79;49.36
10668;BME280;5382;42.136;24.796;2022-11-15T13:10:30;100100.19;;;23.86;48.97
10668;BME280;5382;42.136;24.796;2022-11-15T13:13:00;100105.34;;;24.02;48.25
10668;BME280;5382;42.136;24.796;2022-11-15T13:15:40;100096.56;;;23.79;48.79
10668;BME280;5382;42.136;24.796;2022-11-15T13:18:26;100055.72;;;23.16;50.19
10668;BME280;5382;42.136;24.796;2022-11-15T13:20:54;100088.19;;;23.22;50.98
10668;BME280;5382;42.136;24.796;2022-11-15T13:23:22;100091.72;;;22.78;51.36
10668;BME280;5382;42.136;24.796;2022-11-15T13:26:11;100091.03;;;22.76;52.95
10668;BME280;5382;42.136;24.796;2022-11-15T13:28:43;100090.44;;;22.36;55.17
10668;BME280;5382;42.136;24.796;2022-11-15T13:31:30;100094.88;;;21.52;57.18
10668;BME280;5382;42.136;24.796;2022-11-15T13:34:03;100087.81;;;21.82;56.92
10668;BME280;5382;42.136;24.796;2022-11-15T13:36:40;100079.66;;;21.90;57.36
10668;BME280;5382;42.136;24.796;2022-11-15T13:39:14;100084.56;;;21.64;58.15
10668;BME280;5382;42.136;24.796;2022-11-15T13:41:50;100085.91;;;21.60;58.81
10668;BME280;5382;42.136;24.796;2022-11-15T13:44:21;100083.84;;;20.83;59.73
10668;BME280;5382;42.136;24.796;2022-11-15T13:46:48;100086.25;;;20.61;61.23
10668;BME280;5382;42.136;24.796;2022-11-15T13:49:15;100070.44;;;19.85;64.29
10668;BME280;5382;42.136;24.796;2022-11-15T13:51:44;100087.91;;;19.72;65.86
10668;BME280;5382;42.136;24.796;2022-11-15T13:54:18;100080.19;;;19.77;66.69
10668;BME280;5382;42.136;24.796;2022-11-15T13:56:49;100078.72;;;19.40;66.33
10668;BME280;5382;42.136;24.796;2022-11-15T13:59:23;100076.59;;;19.10;69.50
10668;BME280;5382;42.136;24.796;2022-11-15T14:01:51;100068.28;;;18.69;71.53
10668;BME280;5382;42.136;24.796;2022-11-15T14:04:20;100083.03;;;18.65;71.79
10668;BME280;5382;42.136;24.796;2022-11-15T14:06:51;100084.28;;;18.52;74.06
10668;BME280;5382;42.136;24.796;2022-11-15T14:09:34;100038.75;;;18.08;72.36
10668;BME280;5382;42.136;24.796;2022-11-15T14:12:19;100078.06;;;18.26;74.72
10668;BME280;5382;42.136;24.796;2022-11-15T14:14:49;100070.50;;;18.21;74.54
10668;BME280;5382;42.136;24.796;2022-11-15T14:17:20;100069.50;;;17.69;77.34
10668;BME280;5382;42.136;24.796;2022-11-15T14:19:49;100070.97;;;17.08;80.86
10668;BME280;5382;42.136;24.796;2022-11-15T14:22:18;100052.84;;;16.64;82.75
10668;BME280;5382;42.136;24.796;2022-11-15T14:25:04;100071.13;;;16.59;85.36
10668;BME280;5382;42.136;24.796;2022-11-15T14:27:33;100075.72;;;16.10;89.61
10668;BME280;5382;42.136;24.796;2022-11-15T14:30:02;100074.59;;;15.93;91.39
10668;BME280;5382;42.136;24.796;2022-11-15T14:32:43;100056.97;;;15.61;93.20
10668;BME280;5382;42.136;24.796;2022-11-15T14:35:15;100082.22;;;15.47;96.20
10668;BME280;5382;42.136;24.796;2022-11-15T14:37:42;100069.53;;;15.11;98.28
10668;BME280;5382;42.136;24.796;2022-11-15T14:40:12;100073.09;;;14.90;100.00
10668;BME280;5382;42.136;24.796;2022-11-15T14:42:40;100070.69;;;14.87;100.00
10668;BME280;5382;42.136;24.796;2022-11-15T14:45:12;100047.16;;;14.61;100.00
10668;BME280;5382;42.136;24.796;2022-11-15T14:47:40;100059.31;;;14.54;100.00
10668;BME280;5382;42.136;24.796;2022-11-15T14:50:11;100065.47;;;14.34;100.00
10668;BME280;5382;42.136;24.796;2022-11-15T14:52:38;100073.25;;;14.26;100.00
10668;BME280;5382;42.136;24.796;2022-11-15T14:55:14;100061.44;;;14.18;100.00
10668;BME280;5382;42.136;24.796;2022-11-15T14:57:42;100060.59;;;13.97;100.00
10668;BME280;5382;42.136;24.796;2022-11-15T15:00:13;100058.34;;;13.81;100.00
10668;BME280;5382;42.136;24.796;2022-11-15T15:02:41;100059.47;;;13.67;100.00